Time;durP1;ratioP1;P1;durP2;ratioP2;P2;SDS_P1;SDS_P2;PMS_P1;PMS_P2;Temp;Humidity;BMP_temperature;BMP_pressure;BME280_temperature;BME280_humidity;BME280_pressure;Samples;Min_cycle;Max_cycle;Signal;HPM_P1;HPM_P2
2022/06/28 00:00:01;;;;;;;37.78;20.27;;;13.20;99.90;;;;;;4953693;28;20051;-70
2022/06/28 00:02:27;;;;;;;36.95;20.63;;;13.20;99.90;;;;;;4959867;28;20043;-70
2022/06/28 00:04:52;;;;;;;43.17;20.85;;;13.00;99.90;;;;;;4965288;28;20092;-70
2022/06/28 00:07:18;;;;;;;33.83;19.67;;;13.00;99.90;;;;;;4980225;28;20045;-70
2022/06/28 00:09:44;;;;;;;40.95;22.45;;;13.00;99.90;;;;;;4962173;28;20121;-70
2022/06/28 00:12:10;;;;;;;39.28;21.02;;;13.10;99.90;;;;;;4938991;28;20485;-70
2022/06/28 00:17:37;;;;;;;33.35;20.08;;;13.00;99.90;;;;;;4907586;29;20055;-70
2022/06/28 00:20:04;;;;;;;40.95;21.42;;;13.00;99.90;;;;;;4950246;28;20047;-70
2022/06/28 00:22:30;;;;;;;39.63;20.02;;;12.90;99.90;;;;;;4962064;28;20065;-70
2022/06/28 00:24:55;;;;;;;40.95;22.02;;;12.90;99.90;;;;;;4964078;28;20525;-70
2022/06/28 00:27:21;;;;;;;40.05;21.13;;;12.90;99.90;;;;;;4961226;28;20458;-70
2022/06/28 00:29:46;;;;;;;41.13;21.05;;;12.80;99.90;;;;;;4963321;28;20101;-70
2022/06/28 00:32:12;;;;;;;39.40;20.67;;;12.80;99.90;;;;;;4960909;28;20461;-71
2022/06/28 00:34:37;;;;;;;37.70;20.63;;;12.80;99.90;;;;;;4961757;28;20052;-70
2022/06/28 00:37:03;;;;;;;38.42;20.70;;;12.80;99.90;;;;;;4964110;28;20039;-70
2022/06/28 00:39:29;;;;;;;38.38;21.25;;;12.80;99.90;;;;;;4964688;28;20046;-70
2022/06/28 00:41:54;;;;;;;35.20;20.50;;;12.90;99.90;;;;;;4967314;28;20042;-70
2022/06/28 00:44:21;;;;;;;44.83;22.00;;;12.80;99.90;;;;;;4960924;28;20047;-70
2022/06/28 00:46:47;;;;;;;37.85;20.77;;;12.70;99.90;;;;;;4953992;28;20097;-70
2022/06/28 00:49:13;;;;;;;43.20;21.92;;;12.70;99.90;;;;;;4961021;28;20390;-70
2022/06/28 00:51:39;;;;;;;40.25;22.23;;;12.80;99.90;;;;;;4960679;28;20072;-70
2022/06/28 00:54:05;;;;;;;47.50;22.77;;;12.70;99.90;;;;;;4964077;28;20102;-70
2022/06/28 00:56:31;;;;;;;44.85;21.77;;;12.60;99.90;;;;;;4959900;28;20039;-70
2022/06/28 00:58:57;;;;;;;39.40;20.98;;;12.50;99.90;;;;;;4959171;28;20576;-69
2022/06/28 01:01:24;;;;;;;40.35;21.42;;;12.60;99.90;;;;;;4982442;28;20042;-70
2022/06/28 01:03:49;;;;;;;43.75;23.02;;;12.70;99.90;;;;;;4975604;28;20398;-70
2022/06/28 01:06:15;;;;;;;43.10;21.92;;;12.60;99.90;;;;;;4961211;28;20038;-70
2022/06/28 01:08:42;;;;;;;45.30;22.13;;;12.60;99.90;;;;;;4965323;28;20052;-71
2022/06/28 01:11:20;;;;;;;50.65;22.23;;;12.60;99.90;;;;;;4964003;28;20046;-70
2022/06/28 01:13:50;;;;;;;38.97;22.17;;;12.50;99.90;;;;;;4953780;28;20043;-70
2022/06/28 01:16:17;;;;;;;38.10;21.58;;;12.50;99.90;;;;;;4959591;28;20046;-70
2022/06/28 01:18:43;;;;;;;42.08;22.08;;;12.50;99.90;;;;;;4959953;28;20069;-70
2022/06/28 01:21:15;;;;;;;43.22;21.73;;;12.50;99.90;;;;;;4963312;28;20038;-70
2022/06/28 01:23:45;;;;;;;45.30;21.77;;;12.50;99.90;;;;;;4984561;28;20128;-70
2022/06/28 01:26:13;;;;;;;40.25;20.73;;;12.50;99.90;;;;;;4958170;28;20437;-70
2022/06/28 01:28:40;;;;;;;44.33;22.42;;;12.40;99.90;;;;;;4959112;28;20054;-70
2022/06/28 01:31:06;;;;;;;43.33;21.33;;;12.40;99.90;;;;;;4978953;28;20106;-70
2022/06/28 01:33:33;;;;;;;43.83;22.52;;;12.40;99.90;;;;;;4964166;28;20046;-69
2022/06/28 01:35:59;;;;;;;44.03;21.40;;;12.30;99.90;;;;;;4959759;28;20049;-70
2022/06/28 01:38:25;;;;;;;40.72;21.55;;;12.30;99.90;;;;;;4959592;28;20042;-70
2022/06/28 01:40:51;;;;;;;43.58;22.15;;;12.30;99.90;;;;;;4962914;28;20473;-70
2022/06/28 01:43:19;;;;;;;38.65;21.38;;;12.20;99.90;;;;;;4945921;28;20386;-70
2022/06/28 01:45:45;;;;;;;44.47;22.10;;;12.20;99.90;;;;;;4982806;28;20065;-70
2022/06/28 01:48:10;;;;;;;48.33;22.55;;;12.20;99.90;;;;;;4964111;28;20043;-70
2022/06/28 01:50:37;;;;;;;45.95;21.88;;;12.10;99.90;;;;;;4957679;28;20043;-69
2022/06/28 01:53:03;;;;;;;40.50;21.80;;;12.20;99.90;;;;;;4962676;28;20113;-69
2022/06/28 01:55:29;;;;;;;39.45;19.08;;;12.10;99.90;;;;;;4946602;28;20051;-70
2022/06/28 01:57:55;;;;;;;39.85;19.95;;;12.00;99.90;;;;;;4959190;28;20397;-70
2022/06/28 02:00:20;;;;;;;42.67;21.15;;;12.00;99.90;;;;;;4961928;28;20034;-70
2022/06/28 02:02:46;;;;;;;35.35;19.92;;;12.00;99.90;;;;;;4951073;28;20048;-70
2022/06/28 02:05:12;;;;;;;41.42;21.23;;;11.90;99.90;;;;;;4959709;28;20038;-70
2022/06/28 02:07:47;;;;;;;42.15;20.90;;;12.00;99.90;;;;;;4962950;28;20482;-70
2022/06/28 02:10:12;;;;;;;43.58;20.65;;;11.90;99.90;;;;;;4957490;28;20046;-70
2022/06/28 02:12:38;;;;;;;45.42;22.05;;;11.90;99.90;;;;;;4963819;28;20053;-70
2022/06/28 02:15:04;;;;;;;41.78;21.55;;;11.80;99.90;;;;;;4955495;28;20062;-70
2022/06/28 02:17:30;;;;;;;32.78;16.98;;;11.90;99.90;;;;;;4981638;28;20405;-70
2022/06/28 02:19:55;;;;;;;28.55;15.95;;;11.80;99.90;;;;;;4959433;28;20042;-70
2022/06/28 02:22:21;;;;;;;33.88;17.55;;;11.90;99.90;;;;;;4940995;28;20043;-70
2022/06/28 02:24:48;;;;;;;38.03;18.63;;;11.80;99.90;;;;;;4963213;28;20136;-69
2022/06/28 02:27:14;;;;;;;32.00;17.65;;;11.90;99.90;;;;;;4965162;28;20096;-70
2022/06/28 02:29:39;;;;;;;32.42;18.13;;;11.90;99.90;;;;;;4963176;28;20042;-69
2022/06/28 02:32:06;;;;;;;38.15;19.52;;;11.90;99.90;;;;;;4963243;28;20046;-70
2022/06/28 02:42:43;;;;;;;38.63;22.25;;;11.80;99.90;;;;;;4953543;28;20098;-70
2022/06/28 02:45:09;;;;;;;48.80;24.50;;;11.90;99.90;;;;;;4961403;28;20046;-70
2022/06/28 02:47:35;;;;;;;51.72;24.83;;;11.80;99.90;;;;;;4963131;28;20038;-70
2022/06/28 02:50:00;;;;;;;50.75;24.08;;;11.90;99.90;;;;;;4964873;28;20053;-70
2022/06/28 02:52:26;;;;;;;46.55;23.88;;;11.80;99.90;;;;;;4961133;28;20460;-70
2022/06/28 02:54:51;;;;;;;42.97;23.25;;;11.90;99.90;;;;;;4967930;28;20038;-70
2022/06/28 02:57:17;;;;;;;39.83;21.50;;;11.90;99.90;;;;;;4960523;28;20035;-70
2022/06/28 02:59:43;;;;;;;47.92;22.70;;;11.90;99.90;;;;;;4962293;28;20090;-70
2022/06/28 03:02:08;;;;;;;43.00;21.65;;;11.90;99.90;;;;;;4968003;28;20086;-70
2022/06/28 03:04:34;;;;;;;41.75;20.95;;;11.80;99.90;;;;;;4977738;28;20106;-70
2022/06/28 03:07:00;;;;;;;41.67;20.85;;;11.90;99.90;;;;;;4961339;28;20042;-70
2022/06/28 03:09:25;;;;;;;39.85;20.75;;;11.90;99.90;;;;;;4966891;28;20073;-69
2022/06/28 03:11:51;;;;;;;41.17;20.77;;;11.90;99.90;;;;;;4946612;28;20051;-69
2022/06/28 03:14:16;;;;;;;43.70;20.30;;;11.80;99.90;;;;;;4958352;28;20039;-69
2022/06/28 03:16:42;;;;;;;37.80;19.63;;;11.80;99.90;;;;;;4961234;28;20043;-69
2022/06/28 03:19:08;;;;;;;41.53;18.90;;;11.90;99.90;;;;;;4965392;28;20480;-69
2022/06/28 03:21:33;;;;;;;34.50;18.60;;;11.80;99.90;;;;;;4966636;28;20074;-70
2022/06/28 03:23:59;;;;;;;36.85;18.65;;;12.00;99.90;;;;;;4966209;28;20278;-70
2022/06/28 03:26:24;;;;;;;44.97;19.02;;;11.80;99.90;;;;;;4966734;28;20137;-70
2022/06/28 03:28:50;;;;;;;38.25;17.50;;;11.80;99.90;;;;;;4964889;28;20046;-70
2022/06/28 03:31:15;;;;;;;37.83;18.23;;;11.80;99.90;;;;;;4961872;28;20050;-70
2022/06/28 03:33:41;;;;;;;26.80;15.40;;;11.80;99.90;;;;;;4963339;28;20520;-70
2022/06/28 03:36:06;;;;;;;24.30;14.25;;;11.80;99.90;;;;;;4961558;28;20081;-70
2022/06/28 03:38:32;;;;;;;20.40;12.23;;;11.70;99.90;;;;;;4965396;28;20038;-70
2022/06/28 03:40:58;;;;;;;22.25;12.20;;;11.60;99.90;;;;;;4963704;28;20066;-70
2022/06/28 03:43:23;;;;;;;21.55;11.82;;;11.50;99.90;;;;;;4959337;28;20065;-70
2022/06/28 03:45:49;;;;;;;21.92;11.48;;;11.50;99.90;;;;;;4962250;28;20121;-70
2022/06/28 03:48:14;;;;;;;17.08;10.57;;;11.40;99.90;;;;;;4965100;28;20090;-70
2022/06/28 03:50:40;;;;;;;21.58;11.25;;;11.40;99.90;;;;;;4958209;28;20054;-70
2022/06/28 03:53:05;;;;;;;23.95;12.57;;;11.40;99.90;;;;;;4963164;28;20039;-70
2022/06/28 03:55:31;;;;;;;21.77;13.68;;;11.40;99.90;;;;;;4981880;28;20039;-69
2022/06/28 03:57:57;;;;;;;23.73;12.90;;;11.50;99.90;;;;;;4946584;28;20031;-69
2022/06/28 04:00:22;;;;;;;23.77;13.80;;;11.50;99.90;;;;;;4966533;28;20030;-70
2022/06/28 04:02:48;;;;;;;25.63;13.07;;;11.50;99.90;;;;;;4961408;28;20065;-70
2022/06/28 04:05:15;;;;;;;21.60;13.63;;;11.50;99.90;;;;;;4963087;28;20063;-70
2022/06/28 04:07:41;;;;;;;23.85;13.60;;;11.50;99.90;;;;;;4962491;28;20068;-70
2022/06/28 04:10:07;;;;;;;23.73;13.20;;;11.60;99.90;;;;;;4963774;28;20038;-69
2022/06/28 04:12:33;;;;;;;21.27;12.68;;;11.50;99.90;;;;;;4963652;28;20108;-69
2022/06/28 04:14:58;;;;;;;20.40;12.85;;;11.60;99.90;;;;;;4958712;28;20031;-70
2022/06/28 04:17:24;;;;;;;21.48;13.02;;;11.60;99.90;;;;;;4962213;28;20386;-69
2022/06/28 04:19:49;;;;;;;28.65;14.93;;;11.70;99.90;;;;;;4968530;28;20085;-69
2022/06/28 04:22:15;;;;;;;27.73;15.52;;;11.70;99.90;;;;;;4964231;28;20042;-69
2022/06/28 04:24:40;;;;;;;26.10;14.68;;;11.70;99.90;;;;;;4964626;28;20565;-69
2022/06/28 04:27:06;;;;;;;29.60;15.40;;;11.80;99.90;;;;;;4963935;28;20046;-69
2022/06/28 04:29:32;;;;;;;31.02;15.80;;;11.90;99.90;;;;;;4949277;28;20177;-70
2022/06/28 04:31:57;;;;;;;33.10;16.83;;;12.00;99.90;;;;;;4960794;28;20129;-69
2022/06/28 04:34:23;;;;;;;29.13;15.90;;;12.10;99.90;;;;;;4952194;28;20054;-70
2022/06/28 04:36:48;;;;;;;28.73;16.05;;;12.10;99.90;;;;;;4959540;28;20494;-69
2022/06/28 04:39:14;;;;;;;27.30;14.75;;;12.10;99.90;;;;;;4963675;28;20042;-70
2022/06/28 04:41:40;;;;;;;29.83;15.20;;;12.10;99.90;;;;;;4961417;28;20121;-70
2022/06/28 04:44:05;;;;;;;34.15;15.88;;;12.30;99.90;;;;;;4955046;28;20506;-70
2022/06/28 04:46:31;;;;;;;29.85;15.63;;;12.30;99.90;;;;;;4964903;28;20042;-70
2022/06/28 04:48:57;;;;;;;35.22;15.93;;;12.40;99.90;;;;;;4954456;28;20078;-70
2022/06/28 04:51:22;;;;;;;30.05;14.80;;;12.60;99.90;;;;;;4953087;28;20043;-70
2022/06/28 04:53:48;;;;;;;33.70;14.75;;;12.60;99.90;;;;;;4955256;28;20047;-70
2022/06/28 04:56:14;;;;;;;26.90;14.88;;;12.60;99.90;;;;;;4960490;28;20140;-70
2022/06/28 04:58:40;;;;;;;32.05;14.00;;;12.80;99.90;;;;;;4956036;28;20062;-70
2022/06/28 05:01:05;;;;;;;31.48;15.27;;;12.80;99.90;;;;;;4961829;28;20035;-70
2022/06/28 05:03:31;;;;;;;31.30;14.15;;;12.90;99.90;;;;;;4954842;28;20038;-69
2022/06/28 05:05:57;;;;;;;30.20;14.45;;;13.00;99.90;;;;;;4952997;28;20034;-69
2022/06/28 05:08:23;;;;;;;27.65;13.98;;;13.10;99.90;;;;;;4972220;28;20035;-69
2022/06/28 05:10:48;;;;;;;30.52;13.75;;;13.20;99.90;;;;;;4956699;28;20042;-69
2022/06/28 05:13:14;;;;;;;27.20;13.02;;;13.30;99.90;;;;;;4954059;28;20114;-69
2022/06/28 05:15:40;;;;;;;27.88;12.48;;;13.30;99.90;;;;;;4947093;29;20043;-68
2022/06/28 05:18:05;;;;;;;28.48;12.48;;;13.50;99.90;;;;;;4935048;29;20122;-68
2022/06/28 05:20:31;;;;;;;22.48;12.18;;;13.50;99.90;;;;;;4936074;29;20478;-68
2022/06/28 05:22:56;;;;;;;27.40;12.32;;;13.60;99.90;;;;;;4966093;28;20042;-67
2022/06/28 05:25:22;;;;;;;22.73;11.88;;;13.70;99.90;;;;;;4955102;28;20043;-68
2022/06/28 05:27:48;;;;;;;26.42;11.80;;;13.80;99.90;;;;;;4954328;28;20133;-68
2022/06/28 05:30:13;;;;;;;32.75;12.38;;;13.80;99.90;;;;;;4955572;28;20517;-68
2022/06/28 05:32:39;;;;;;;27.60;11.23;;;13.90;99.90;;;;;;4955664;28;20058;-68
2022/06/28 05:35:06;;;;;;;26.67;10.55;;;14.00;99.90;;;;;;4961087;28;20570;-68
2022/06/28 05:37:32;;;;;;;25.88;11.02;;;14.20;99.90;;;;;;4959231;28;20038;-68
2022/06/28 05:39:57;;;;;;;18.73;10.05;;;14.20;99.90;;;;;;4962040;28;20035;-69
2022/06/28 05:42:23;;;;;;;23.88;10.48;;;14.30;99.90;;;;;;4961615;28;20644;-69
2022/06/28 05:44:49;;;;;;;23.30;10.15;;;14.40;99.90;;;;;;4954109;28;20042;-70
2022/06/28 05:47:15;;;;;;;27.00;10.98;;;14.60;99.90;;;;;;4954021;28;20058;-70
2022/06/28 05:49:40;;;;;;;20.80;10.05;;;14.70;99.90;;;;;;4973274;28;20051;-70
2022/06/28 05:52:07;;;;;;;25.20;9.70;;;14.70;99.90;;;;;;4967304;28;20047;-71
2022/06/28 05:54:32;;;;;;;23.50;9.85;;;14.80;99.90;;;;;;4954964;28;20085;-70
2022/06/28 05:56:58;;;;;;;20.77;9.48;;;14.80;99.90;;;;;;4975558;28;20066;-70
2022/06/28 05:59:24;;;;;;;24.45;9.23;;;15.00;99.90;;;;;;4958934;28;20145;-71
2022/06/28 06:01:49;;;;;;;21.40;8.90;;;15.00;99.90;;;;;;4957767;28;20030;-71
2022/06/28 06:04:16;;;;;;;25.88;9.20;;;15.10;99.90;;;;;;4954276;28;20389;-71
2022/06/28 06:06:42;;;;;;;20.83;9.25;;;15.20;99.90;;;;;;4979893;28;20830;-71
2022/06/28 06:09:07;;;;;;;19.77;8.32;;;15.30;99.90;;;;;;4951976;28;20030;-70
2022/06/28 06:11:33;;;;;;;21.20;8.10;;;15.30;99.90;;;;;;4954449;28;20042;-70
2022/06/28 06:13:59;;;;;;;21.25;8.13;;;15.30;99.90;;;;;;4956703;28;20670;-70
2022/06/28 06:16:24;;;;;;;17.35;7.28;;;15.50;99.90;;;;;;4957620;28;20034;-70
2022/06/28 06:18:50;;;;;;;21.02;6.90;;;15.60;99.90;;;;;;4957471;28;20050;-71
2022/06/28 06:21:16;;;;;;;24.52;7.65;;;15.70;99.90;;;;;;4960664;28;20082;-70
2022/06/28 06:23:41;;;;;;;20.58;7.32;;;15.70;99.90;;;;;;4953613;28;20580;-71
2022/06/28 06:26:07;;;;;;;20.60;6.95;;;15.90;99.90;;;;;;4951588;28;20054;-71
2022/06/28 06:28:34;;;;;;;19.40;7.03;;;15.90;99.90;;;;;;4936626;29;20047;-72
2022/06/28 06:31:00;;;;;;;19.33;6.38;;;15.90;99.90;;;;;;4934859;29;20434;-72
2022/06/28 06:33:26;;;;;;;19.23;6.50;;;16.10;99.90;;;;;;4935181;29;20050;-72
2022/06/28 06:35:52;;;;;;;21.77;6.97;;;16.10;99.90;;;;;;4939875;28;20098;-72
2022/06/28 06:38:17;;;;;;;18.35;6.15;;;16.20;99.90;;;;;;4942861;29;20504;-71
2022/06/28 06:40:43;;;;;;;20.23;6.57;;;16.40;99.90;;;;;;4938888;28;20141;-74
2022/06/28 06:43:08;;;;;;;20.75;6.97;;;16.30;99.90;;;;;;4952659;28;20129;-73
2022/06/28 06:45:34;;;;;;;17.50;6.45;;;16.40;99.90;;;;;;4938172;28;21216;-74
2022/06/28 06:48:00;;;;;;;20.85;5.47;;;16.50;99.90;;;;;;4953112;28;20069;-73
2022/06/28 06:50:25;;;;;;;17.27;5.80;;;16.50;99.90;;;;;;4953431;28;20050;-72
2022/06/28 06:52:51;;;;;;;22.42;5.28;;;16.60;99.90;;;;;;4953809;28;20039;-72
2022/06/28 06:55:16;;;;;;;25.65;5.72;;;16.60;99.90;;;;;;4954177;28;20043;-72
2022/06/28 06:57:42;;;;;;;25.05;5.60;;;16.70;99.90;;;;;;4951738;28;20404;-71
2022/06/28 07:00:09;;;;;;;24.60;5.25;;;16.80;99.90;;;;;;4952754;28;20454;-74
2022/06/28 07:02:40;;;;;;;24.48;5.32;;;16.90;99.90;;;;;;4954296;28;20122;-72
2022/06/28 07:05:06;;;;;;;16.58;4.93;;;16.90;99.90;;;;;;4952539;28;20054;-73
2022/06/28 07:07:31;;;;;;;18.08;4.82;;;17.00;99.90;;;;;;4953719;28;20039;-71
2022/06/28 07:09:58;;;;;;;17.67;5.32;;;17.00;99.90;;;;;;4953774;28;20557;-72
2022/06/28 07:12:24;;;;;;;21.75;5.72;;;17.00;99.90;;;;;;4954239;28;20038;-73
2022/06/28 07:14:50;;;;;;;25.80;5.60;;;17.10;99.90;;;;;;4952084;28;20133;-72
2022/06/28 07:17:16;;;;;;;20.15;5.63;;;17.10;99.90;;;;;;4951945;28;20125;-73
2022/06/28 07:19:41;;;;;;;21.38;6.25;;;17.20;99.90;;;;;;4953936;28;20418;-70
2022/06/28 07:22:07;;;;;;;25.35;6.45;;;17.20;99.90;;;;;;4953803;28;20043;-73
2022/06/28 07:24:33;;;;;;;24.98;6.95;;;17.30;99.90;;;;;;4953868;28;20047;-71
2022/06/28 07:26:58;;;;;;;23.30;7.05;;;17.30;99.90;;;;;;4954042;28;20051;-69
2022/06/28 07:29:24;;;;;;;18.70;6.82;;;17.30;99.90;;;;;;4954185;28;20035;-70
2022/06/28 07:31:50;;;;;;;25.90;7.35;;;17.40;99.90;;;;;;4949689;28;20063;-73
2022/06/28 07:34:15;;;;;;;25.95;6.65;;;17.50;99.90;;;;;;4954853;28;20046;-70
2022/06/28 07:36:41;;;;;;;24.35;6.97;;;17.60;99.90;;;;;;4956962;28;20038;-69
2022/06/28 07:39:07;;;;;;;19.92;7.00;;;17.70;99.90;;;;;;4957770;28;20035;-72
2022/06/28 07:41:32;;;;;;;28.23;7.22;;;17.80;99.90;;;;;;4959001;28;20099;-72
2022/06/28 07:43:58;;;;;;;27.17;7.07;;;17.90;99.90;;;;;;4956901;28;20065;-68
2022/06/28 07:46:24;;;;;;;24.83;7.13;;;18.00;99.90;;;;;;4960813;28;20039;-68
2022/06/28 07:48:50;;;;;;;24.10;7.10;;;18.00;99.90;;;;;;4968286;28;20038;-72
2022/06/28 07:54:01;;;;;;;23.00;7.18;;;18.20;99.90;;;;;;4958951;28;20128;-71
2022/06/28 07:56:27;;;;;;;18.17;6.50;;;18.50;99.90;;;;;;4956853;28;20041;-71
2022/06/28 07:58:53;;;;;;;23.05;6.80;;;18.60;99.90;;;;;;4957253;28;20489;-70
2022/06/28 08:01:19;;;;;;;20.08;5.93;;;18.60;99.90;;;;;;4959023;28;20043;-67
2022/06/28 08:03:45;;;;;;;17.60;5.80;;;18.50;99.90;;;;;;4963208;28;20039;-70
2022/06/28 08:06:10;;;;;;;18.38;6.57;;;18.30;99.90;;;;;;4955112;28;20142;-72
2022/06/28 08:08:36;;;;;;;21.13;5.88;;;18.30;99.90;;;;;;4942393;28;20047;-71
2022/06/28 08:11:02;;;;;;;19.98;5.30;;;18.30;99.90;;;;;;4959652;28;20039;-70
2022/06/28 08:13:27;;;;;;;15.80;5.40;;;18.40;99.90;;;;;;4958769;28;20043;-69
2022/06/28 08:15:53;;;;;;;22.50;5.78;;;18.10;99.90;;;;;;4957760;28;20042;-71
2022/06/28 08:18:19;;;;;;;18.27;5.15;;;17.90;99.90;;;;;;4965999;28;20039;-70
2022/06/28 08:20:45;;;;;;;23.52;6.13;;;17.80;99.90;;;;;;4958885;28;20042;-71
2022/06/28 08:23:11;;;;;;;21.00;5.88;;;17.90;99.90;;;;;;4967914;28;20482;-72
2022/06/28 08:25:37;;;;;;;17.17;5.65;;;18.10;99.90;;;;;;4946146;28;20050;-72
2022/06/28 08:28:03;;;;;;;17.58;4.57;;;18.30;99.90;;;;;;4968389;28;20045;-72
2022/06/28 08:30:29;;;;;;;20.00;5.53;;;18.50;99.90;;;;;;4960070;28;20057;-70
2022/06/28 08:32:55;;;;;;;17.75;5.55;;;18.70;99.90;;;;;;4965792;28;20031;-71
2022/06/28 08:35:21;;;;;;;21.20;6.28;;;18.80;99.90;;;;;;4964639;28;20043;-70
2022/06/28 08:37:47;;;;;;;15.75;5.10;;;18.90;99.90;;;;;;4967084;28;20135;-70
2022/06/28 08:40:13;;;;;;;17.70;5.15;;;18.90;99.90;;;;;;4971792;28;20070;-69
2022/06/28 08:42:47;;;;;;;18.65;4.57;;;18.90;99.90;;;;;;4963210;28;20062;-70
2022/06/28 08:45:13;;;;;;;16.58;4.75;;;19.00;99.90;;;;;;4961695;28;20070;-71
2022/06/28 08:47:41;;;;;;;17.92;5.10;;;19.10;99.90;;;;;;4970313;28;20513;-70
2022/06/28 08:50:14;;;;;;;17.38;5.15;;;19.20;99.90;;;;;;4985375;28;20112;-71
2022/06/28 08:52:41;;;;;;;;;;;19.30;99.90;;;;;;4962121;28;20074;-70
2022/06/28 08:55:10;;;;;;;13.90;4.20;;;19.40;99.90;;;;;;4965460;28;20365;-70
2022/06/28 08:57:36;;;;;;;14.10;4.72;;;19.50;99.90;;;;;;4949518;28;20039;-71
2022/06/28 09:00:08;;;;;;;20.33;5.95;;;19.60;99.90;;;;;;4975392;28;20037;-69
2022/06/28 09:02:34;;;;;;;17.88;5.45;;;19.60;99.90;;;;;;4953213;28;20543;-70
2022/06/28 09:05:01;;;;;;;16.83;4.70;;;19.70;99.90;;;;;;4968145;28;20043;-69
2022/06/28 09:07:28;;;;;;;20.02;5.13;;;19.80;99.90;;;;;;4952451;28;20042;-70
2022/06/28 09:09:53;;;;;;;13.25;4.07;;;19.90;99.90;;;;;;4963981;28;20038;-70
2022/06/28 09:12:20;;;;;;;14.70;4.15;;;19.80;99.90;;;;;;4957068;28;20401;-70
2022/06/28 09:14:48;;;;;;;13.68;4.55;;;19.70;99.90;;;;;;4962140;28;20049;-70
2022/06/28 09:17:21;;;;;;;15.10;4.03;;;19.80;99.90;;;;;;4965407;28;20027;-70
2022/06/28 09:19:48;;;;;;;13.57;4.68;;;19.90;99.90;;;;;;4970789;28;20442;-71
2022/06/28 09:22:32;;;;;;;15.75;4.88;;;20.10;99.90;;;;;;4963381;28;20043;-74
2022/06/28 09:24:59;;;;;;;10.90;3.53;;;20.10;99.90;;;;;;4960752;28;20054;-68
2022/06/28 09:27:34;;;;;;;11.25;3.60;;;20.20;99.90;;;;;;4966845;28;20125;-69
2022/06/28 09:30:02;;;;;;;13.65;3.25;;;20.10;99.90;;;;;;4966075;28;20049;-70
2022/06/28 09:32:33;;;;;;;13.55;3.67;;;20.10;99.90;;;;;;4966213;28;20057;-69
2022/06/28 09:35:03;;;;;;;16.40;3.58;;;20.20;99.90;;;;;;4965122;28;20043;-69
2022/06/28 09:37:48;;;;;;;17.58;3.58;;;20.30;99.90;;;;;;4969196;28;20062;-69
2022/06/28 09:40:22;;;;;;;13.07;3.47;;;20.40;99.90;;;;;;4966051;28;20119;-70
2022/06/28 09:43:12;;;;;;;17.10;3.85;;;20.40;99.90;;;;;;4976029;28;20485;-70
2022/06/28 09:45:40;;;;;;;12.38;2.90;;;19.90;99.90;;;;;;4958463;28;20111;-75
2022/06/28 09:48:06;;;;;;;10.40;3.08;;;19.70;99.90;;;;;;4961371;28;20039;-70
2022/06/28 09:50:35;;;;;;;15.05;2.70;;;19.70;99.90;;;;;;4966157;28;20050;-68
2022/06/28 09:53:02;;;;;;;14.98;3.70;;;19.80;99.90;;;;;;4962350;28;20051;-71
2022/06/28 09:55:31;;;;;;;11.65;2.90;;;20.10;99.90;;;;;;4970476;28;20038;-71
2022/06/28 09:57:59;;;;;;;13.20;3.03;;;20.30;99.90;;;;;;4961265;28;20486;-69
2022/06/28 10:00:25;;;;;;;13.40;3.15;;;20.40;99.90;;;;;;4969576;28;20035;-72
2022/06/28 10:02:54;;;;;;;14.25;3.08;;;20.50;99.90;;;;;;4969451;28;20045;-68
2022/06/28 10:05:20;;;;;;;12.43;3.10;;;20.60;99.90;;;;;;4958909;28;20133;-69
2022/06/28 10:07:46;;;;;;;14.13;3.47;;;20.60;99.90;;;;;;4969060;28;20454;-75
2022/06/28 10:10:12;;;;;;;13.02;3.42;;;20.50;99.90;;;;;;4967694;28;20050;-71
2022/06/28 10:15:27;;;;;;;11.77;3.60;;;20.50;99.90;;;;;;4965854;28;20053;-76
2022/06/28 10:18:09;;;;;;;15.73;3.25;;;20.60;99.90;;;;;;4956341;28;20070;-69
2022/06/28 10:20:40;;;;;;;19.05;3.75;;;20.50;99.90;;;;;;4963549;28;20049;-72
2022/06/28 10:23:33;;;;;;;8.07;2.30;;;20.30;99.90;;;;;;4965526;28;20394;-70
2022/06/28 10:26:14;;;;;;;11.32;2.50;;;20.00;99.90;;;;;;4957937;28;20413;-70
2022/06/28 10:29:05;;;;;;;11.00;3.40;;;19.90;99.90;;;;;;4950311;28;20051;-67
2022/06/28 10:31:39;;;;;;;11.73;2.97;;;20.10;99.90;;;;;;4952126;28;20054;-71
2022/06/28 10:34:08;;;;;;;13.82;3.58;;;20.20;99.90;;;;;;4978020;28;20039;-70
2022/06/28 10:36:55;;;;;;;8.98;2.53;;;20.10;99.90;;;;;;4943029;28;20457;-69
2022/06/28 10:39:22;;;;;;;9.45;2.70;;;20.00;99.90;;;;;;4967259;28;20038;-69
2022/06/28 10:41:51;;;;;;;8.75;2.47;;;20.30;99.90;;;;;;4957312;28;20489;-68
2022/06/28 10:44:18;;;;;;;11.23;2.45;;;20.50;99.90;;;;;;4957224;28;20046;-68
2022/06/28 10:46:59;;;;;;;16.20;2.90;;;20.60;99.90;;;;;;4971655;28;20042;-69
2022/06/28 10:49:24;;;;;;;11.43;2.78;;;20.80;99.90;;;;;;4952687;28;20039;-69
2022/06/28 10:52:11;;;;;;;12.00;3.67;;;20.90;99.90;;;;;;4956434;28;20057;-71
2022/06/28 10:54:38;;;;;;;8.93;2.45;;;21.00;99.90;;;;;;4964396;28;20402;-70
2022/06/28 10:57:21;;;;;;;11.98;3.00;;;21.00;99.90;;;;;;4960683;28;20049;-72
2022/06/28 10:59:49;;;;;;;8.90;3.25;;;20.90;99.90;;;;;;4952851;28;20478;-71
2022/06/28 11:02:43;;;;;;;12.65;3.00;;;20.70;99.90;;;;;;4963333;28;20470;-68
2022/06/28 11:05:09;;;;;;;12.35;3.00;;;20.70;99.90;;;;;;4968784;28;20065;-70
2022/06/28 11:07:37;;;;;;;11.50;2.92;;;20.90;99.90;;;;;;4955306;28;20050;-72
2022/06/28 11:10:05;;;;;;;12.98;3.40;;;21.10;99.90;;;;;;4958994;28;20051;-72
2022/06/28 11:12:35;;;;;;;37.17;3.05;;;21.20;99.90;;;;;;4957186;28;20049;-68
2022/06/28 11:15:08;;;;;;;21.60;2.90;;;21.40;99.90;;;;;;4945915;28;20049;-75
2022/06/28 11:17:39;;;;;;;12.13;2.65;;;21.50;99.90;;;;;;4963141;28;20113;-71
2022/06/28 11:20:14;;;;;;;10.40;2.83;;;21.50;99.90;;;;;;4966584;28;20122;-71
2022/06/28 11:22:41;;;;;;;9.00;2.70;;;21.60;99.90;;;;;;4968731;28;20369;-71
2022/06/28 11:25:10;;;;;;;9.95;2.85;;;21.70;99.90;;;;;;4965156;28;20141;-71
2022/06/28 11:27:52;;;;;;;11.30;3.38;;;21.80;99.90;;;;;;4971517;28;20070;-71
2022/06/28 11:30:20;;;;;;;14.60;3.10;;;22.00;99.90;;;;;;4965752;28;20481;-71
2022/06/28 11:32:49;;;;;;;10.85;3.03;;;22.00;99.90;;;;;;4974524;28;20046;-70
2022/06/28 11:35:17;;;;;;;11.65;2.90;;;21.90;99.90;;;;;;4958587;28;20125;-71
2022/06/28 11:37:48;;;;;;;12.65;2.78;;;21.80;99.90;;;;;;4956133;28;20039;-70
2022/06/28 11:40:15;;;;;;;9.57;3.25;;;21.80;99.90;;;;;;4964922;28;20034;-72
2022/06/28 11:42:42;;;;;;;23.52;3.05;;;21.90;99.90;;;;;;4974266;28;20035;-72
2022/06/28 11:45:10;;;;;;;11.02;2.80;;;21.90;99.90;;;;;;4966125;28;20086;-71
2022/06/28 11:47:36;;;;;;;11.05;3.38;;;21.90;99.90;;;;;;4965766;28;20535;-72
2022/06/28 11:50:14;;;;;;;20.17;3.50;;;21.90;99.90;;;;;;4969224;28;20562;-72
2022/06/28 11:52:52;;;;;;;14.05;3.00;;;21.50;99.90;;;;;;4967089;28;20149;-70
2022/06/28 11:55:36;;;;;;;8.82;2.92;;;21.50;99.90;;;;;;4988990;28;20038;-71
2022/06/28 11:58:15;;;;;;;9.25;2.80;;;21.70;99.90;;;;;;4957703;28;20035;-74
2022/06/28 12:01:00;;;;;;;10.73;2.80;;;21.80;99.90;;;;;;4983480;28;20038;-70
2022/06/28 12:03:26;;;;;;;10.77;3.30;;;21.90;99.90;;;;;;4948445;29;20102;-74
2022/06/28 12:05:57;;;;;;;10.50;3.10;;;22.00;99.90;;;;;;4950089;28;20047;-72
2022/06/28 12:08:50;;;;;;;13.60;3.30;;;22.00;99.90;;;;;;4959607;28;20396;-73
2022/06/28 12:11:51;;;;;;;13.25;3.53;;;22.10;99.90;;;;;;4960969;28;20410;-74
2022/06/28 12:14:22;;;;;;;15.88;3.58;;;22.20;99.90;;;;;;4945270;29;20047;-76
2022/06/28 12:16:54;;;;;;;16.55;3.13;;;22.40;99.90;;;;;;4963190;28;20101;-74
2022/06/28 12:19:28;;;;;;;12.90;3.00;;;22.40;99.90;;;;;;4968505;28;20117;-76
2022/06/28 12:22:08;;;;;;;12.10;3.17;;;22.40;99.90;;;;;;4967012;28;20046;-73
2022/06/28 12:24:46;;;;;;;13.40;3.35;;;22.30;99.90;;;;;;4968434;28;20078;-74
2022/06/28 12:27:14;;;;;;;13.40;3.58;;;22.20;99.90;;;;;;4965547;28;20470;-78
2022/06/28 12:29:40;;;;;;;9.48;3.00;;;22.40;99.90;;;;;;4962930;28;20778;-75
2022/06/28 12:32:07;;;;;;;16.13;3.75;;;22.40;99.90;;;;;;4982966;28;20054;-74
2022/06/28 12:34:32;;;;;;;14.00;3.70;;;22.20;99.90;;;;;;4961484;28;20043;-70
2022/06/28 12:36:58;;;;;;;11.80;3.38;;;22.20;99.90;;;;;;4969700;28;20038;-70
2022/06/28 12:39:24;;;;;;;8.45;2.90;;;22.20;99.90;;;;;;4977566;28;20105;-73
2022/06/28 12:41:50;;;;;;;10.82;3.30;;;22.30;99.90;;;;;;4977880;28;20377;-74
2022/06/28 12:44:16;;;;;;;16.02;3.50;;;22.20;99.90;;;;;;4962833;28;20038;-75
2022/06/28 12:46:44;;;;;;;11.63;3.15;;;22.10;99.90;;;;;;4987358;28;20053;-73
2022/06/28 12:49:09;;;;;;;13.38;3.35;;;22.10;99.90;;;;;;4983810;28;20366;-74
2022/06/28 12:51:35;;;;;;;12.38;3.15;;;22.20;99.90;;;;;;4947179;28;20078;-75